Time;durP1;ratioP1;P1;durP2;ratioP2;P2;SDS_P1;SDS_P2;PMS_P1;PMS_P2;Temp;Humidity;BMP_temperature;BMP_pressure;BME280_temperature;BME280_humidity;BME280_pressure;Samples;Min_cycle;Max_cycle;Signal;HPM_P1;HPM_P2
2022/04/04 00:01:38;;;;;;;;;;;24.20;41.60;;;;;;1594024;74;651;-67
2022/04/04 00:03:40;;;;;;;;;;;24.20;41.60;;;;;;1593803;74;755;-67
2022/04/04 00:05:42;;;;;;;;;;;24.10;42.30;;;;;;1594107;74;1075;-67
2022/04/04 00:07:44;;;;;;;;;;;24.20;42.50;;;;;;1594166;74;803;-67
2022/04/04 00:09:46;;;;;;;;;;;24.10;42.00;;;;;;1594179;74;771;-66
2022/04/04 00:11:48;;;;;;;;;;;24.10;42.20;;;;;;1591209;74;607;-67
2022/04/04 00:13:50;;;;;;;;;;;24.00;42.00;;;;;;1549812;77;782;-68
2022/04/04 00:15:52;;;;;;;;;;;24.10;42.20;;;;;;1549858;77;1126;-68
2022/04/04 00:17:58;;;;;;;;;;;24.10;42.00;;;;;;1549823;77;1928;-68
2022/04/04 00:19:57;;;;;;;;;;;24.00;42.10;;;;;;1587794;74;1399;-68
2022/04/04 00:21:59;;;;;;;;;;;24.00;41.80;;;;;;1596513;74;637;-67
2022/04/04 00:24:01;;;;;;;;;;;24.10;42.00;;;;;;1596380;74;708;-67
2022/04/04 00:26:04;;;;;;;;;;;24.00;41.80;;;;;;1595986;74;1100;-70
2022/04/04 00:28:06;;;;;;;;;;;24.10;41.90;;;;;;1596553;74;771;-67
2022/04/04 00:30:08;;;;;;;;;;;24.10;41.90;;;;;;1594437;74;833;-69
2022/04/04 00:32:10;;;;;;;;;;;24.10;41.90;;;;;;1570833;74;805;-69
2022/04/04 00:34:12;;;;;;;;;;;24.10;41.90;;;;;;1571529;74;1152;-68
2022/04/04 00:36:14;;;;;;;;;;;24.10;42.00;;;;;;1574117;74;725;-69
2022/04/04 00:38:18;;;;;;;;;;;24.10;42.10;;;;;;1593065;74;1931;-67
2022/04/04 00:40:19;;;;;;;;;;;24.10;42.10;;;;;;1575449;75;790;-68
2022/04/04 00:42:21;;;;;;;;;;;24.00;42.50;;;;;;1588926;74;818;-69
2022/04/04 00:44:25;;;;;;;;;;;24.00;42.40;;;;;;1577207;74;1148;-70
2022/04/04 00:46:27;;;;;;;;;;;24.00;42.90;;;;;;1566630;76;734;-69
2022/04/04 00:48:29;;;;;;;;;;;24.00;42.50;;;;;;1566715;76;746;-68
2022/04/04 00:50:30;;;;;;;;;;;24.00;42.60;;;;;;1569987;74;704;-68
2022/04/04 00:52:32;;;;;;;;;;;24.00;42.80;;;;;;1568338;74;831;-69
2022/04/04 00:54:34;;;;;;;;;;;23.90;42.70;;;;;;1581320;74;1132;-69
2022/04/04 00:56:36;;;;;;;;;;;23.90;42.80;;;;;;1604808;74;2084;-67
2022/04/04 00:58:38;;;;;;;;;;;23.80;42.60;;;;;;1604828;74;742;-70
2022/04/04 01:00:42;;;;;;;;;;;23.90;42.80;;;;;;1604809;74;640;-68
2022/04/04 01:02:44;;;;;;;;;;;23.90;43.10;;;;;;1603900;74;1294;-69
2022/04/04 01:04:46;;;;;;;;;;;23.90;43.10;;;;;;1603673;74;1130;-68
2022/04/04 01:06:48;;;;;;;;;;;23.90;43.00;;;;;;1605824;73;772;-68
2022/04/04 01:08:49;;;;;;;;;;;23.90;43.10;;;;;;1604761;73;777;-67
2022/04/04 01:10:51;;;;;;;;;;;23.90;43.00;;;;;;1561585;76;738;-68
2022/04/04 01:12:55;;;;;;;;;;;23.90;42.80;;;;;;1571129;75;733;-69
2022/04/04 01:14:57;;;;;;;;;;;23.90;43.10;;;;;;1585203;75;1179;-67
2022/04/04 01:16:58;;;;;;;;;;;23.90;43.10;;;;;;1544109;76;1958;-68
2022/04/04 01:19:00;;;;;;;;;;;24.00;42.70;;;;;;1575530;75;778;-71
2022/04/04 01:21:02;;;;;;;;;;;23.90;42.80;;;;;;1575500;75;735;-69
2022/04/04 01:23:09;;;;;;;;;;;24.00;42.70;;;;;;1574944;75;681;-70
2022/04/04 01:25:09;;;;;;;;;;;24.00;42.60;;;;;;1574023;75;1198;-68
2022/04/04 01:27:11;;;;;;;;;;;24.00;42.60;;;;;;1575347;75;707;-68
2022/04/04 01:29:13;;;;;;;;;;;24.00;42.60;;;;;;1575466;75;741;-67
2022/04/04 01:31:15;;;;;;;;;;;24.00;42.50;;;;;;1575537;75;705;-66
2022/04/04 01:33:17;;;;;;;;;;;24.10;42.50;;;;;;1575226;75;662;-67
2022/04/04 01:35:20;;;;;;;;;;;24.10;42.60;;;;;;1575353;75;1117;-67
2022/04/04 01:37:22;;;;;;;;;;;24.00;42.80;;;;;;1575436;75;1929;-66
2022/04/04 01:39:23;;;;;;;;;;;24.00;42.60;;;;;;1575514;74;778;-67
2022/04/04 01:41:25;;;;;;;;;;;24.00;42.60;;;;;;1575008;75;722;-67
2022/04/04 01:43:27;;;;;;;;;;;24.00;42.60;;;;;;1554071;75;809;-68
2022/04/04 01:47:50;;;;;;;;;;;24.10;42.50;;;;;;1561430;76;1633;-66
2022/04/04 01:49:52;;;;;;;;;;;24.20;42.30;;;;;;1561455;76;699;-66
2022/04/04 01:51:54;;;;;;;;;;;24.10;42.30;;;;;;1586392;75;741;-67
2022/04/04 01:53:57;;;;;;;;;;;24.20;42.30;;;;;;1588775;75;804;-67
2022/04/04 01:56:00;;;;;;;;;;;24.10;42.40;;;;;;1575045;75;1155;-67
2022/04/04 01:58:02;;;;;;;;;;;24.10;42.30;;;;;;1575409;75;1925;-67
2022/04/04 02:00:04;;;;;;;;;;;24.20;42.30;;;;;;1575558;74;763;-69
2022/04/04 02:02:06;;;;;;;;;;;24.20;42.10;;;;;;1575061;75;734;-69
2022/04/04 02:04:09;;;;;;;;;;;24.10;42.30;;;;;;1575389;75;1136;-67
2022/04/04 02:06:11;;;;;;;;;;;24.20;42.10;;;;;;1575493;75;702;-67
2022/04/04 02:08:13;;;;;;;;;;;24.20;42.10;;;;;;1583143;75;769;-67
2022/04/04 02:10:15;;;;;;;;;;;24.20;42.10;;;;;;1590155;75;776;-68
2022/04/04 02:12:16;;;;;;;;;;;24.20;42.10;;;;;;1590432;75;847;-67
2022/04/04 02:14:18;;;;;;;;;;;24.20;42.00;;;;;;1590693;75;1143;-66
2022/04/04 02:16:20;;;;;;;;;;;24.20;42.00;;;;;;1590718;75;734;-66
2022/04/04 02:18:22;;;;;;;;;;;24.20;42.10;;;;;;1590661;75;1907;-67
2022/04/04 02:20:24;;;;;;;;;;;24.30;42.10;;;;;;1589958;75;797;-68
2022/04/04 02:22:26;;;;;;;;;;;24.20;42.30;;;;;;1590563;75;656;-67
2022/04/04 02:24:28;;;;;;;;;;;24.20;42.10;;;;;;1590005;75;1109;-69
2022/04/04 02:26:29;;;;;;;;;;;24.20;42.20;;;;;;1590524;75;737;-68
2022/04/04 02:28:31;;;;;;;;;;;24.20;42.10;;;;;;1590506;75;800;-67
2022/04/04 02:30:33;;;;;;;;;;;24.20;42.10;;;;;;1590542;75;759;-66
2022/04/04 02:32:36;;;;;;;;;;;24.20;42.30;;;;;;1590219;75;766;-67
2022/04/04 02:34:38;;;;;;;;;;;24.20;42.70;;;;;;1590555;75;1130;-67
2022/04/04 02:36:40;;;;;;;;;;;24.00;42.60;;;;;;1590697;75;770;-66
2022/04/04 02:38:42;;;;;;;;;;;24.00;42.80;;;;;;1590643;75;1937;-66
2022/04/04 02:40:44;;;;;;;;;;;24.00;42.80;;;;;;1590191;75;700;-66
2022/04/04 02:42:47;;;;;;;;;;;24.00;42.90;;;;;;1578441;75;788;-67
2022/04/04 02:44:49;;;;;;;;;;;23.90;43.00;;;;;;1609852;73;1122;-68
2022/04/04 02:46:50;;;;;;;;;;;23.90;43.20;;;;;;1625053;73;735;-67
2022/04/04 02:48:52;;;;;;;;;;;23.90;43.10;;;;;;1590015;73;717;-67
2022/04/04 02:50:54;;;;;;;;;;;23.90;43.30;;;;;;1612449;74;765;-65
2022/04/04 02:52:56;;;;;;;;;;;23.80;43.30;;;;;;1612118;74;715;-67
2022/04/04 02:54:58;;;;;;;;;;;23.80;43.30;;;;;;1587914;74;1171;-65
2022/04/04 02:57:00;;;;;;;;;;;23.70;43.30;;;;;;1582179;74;769;-68
2022/04/04 02:59:02;;;;;;;;;;;23.70;43.30;;;;;;1583930;74;1949;-68
2022/04/04 03:01:04;;;;;;;;;;;23.70;43.30;;;;;;1564315;76;788;-67
2022/04/04 03:03:05;;;;;;;;;;;23.70;43.30;;;;;;1581048;75;726;-67
2022/04/04 03:05:08;;;;;;;;;;;23.60;43.20;;;;;;1608236;73;1169;-66
2022/04/04 03:07:10;;;;;;;;;;;23.70;43.40;;;;;;1619652;73;736;-66
2022/04/04 03:09:12;;;;;;;;;;;23.70;43.50;;;;;;1619551;73;794;-65
2022/04/04 03:11:15;;;;;;;;;;;23.70;43.50;;;;;;1605976;73;781;-66
2022/04/04 03:13:16;;;;;;;;;;;23.60;43.40;;;;;;1614583;73;789;-71
2022/04/04 03:15:22;;;;;;;;;;;23.60;43.40;;;;;;1595902;73;1163;-67
2022/04/04 03:17:25;;;;;;;;;;;23.70;43.60;;;;;;1604032;73;762;-67
2022/04/04 03:19:27;;;;;;;;;;;23.60;43.40;;;;;;1595074;73;728;-68
2022/04/04 03:21:29;;;;;;;;;;;23.60;43.40;;;;;;1592134;75;653;-69
2022/04/04 03:23:31;;;;;;;;;;;23.60;43.40;;;;;;1612710;73;760;-66
2022/04/04 03:25:33;;;;;;;;;;;23.60;43.40;;;;;;1619484;73;1138;-67
2022/04/04 03:27:36;;;;;;;;;;;23.60;43.40;;;;;;1618018;73;776;-67
2022/04/04 03:29:38;;;;;;;;;;;23.60;43.40;;;;;;1564129;76;813;-67
2022/04/04 03:31:40;;;;;;;;;;;23.50;43.40;;;;;;1574136;75;685;-69
2022/04/04 03:33:44;;;;;;;;;;;23.60;43.40;;;;;;1555808;76;805;-67
2022/04/04 03:35:45;;;;;;;;;;;23.50;43.30;;;;;;1611946;73;1150;-65
2022/04/04 03:37:48;;;;;;;;;;;23.50;43.30;;;;;;1606147;73;1929;-66
2022/04/04 03:39:50;;;;;;;;;;;23.60;43.40;;;;;;1597522;73;815;-66
2022/04/04 03:41:53;;;;;;;;;;;23.50;43.40;;;;;;1598015;72;756;-66
2022/04/04 03:43:55;;;;;;;;;;;23.50;43.30;;;;;;1621453;72;709;-65
2022/04/04 03:45:57;;;;;;;;;;;23.50;43.30;;;;;;1612112;74;1123;-67
2022/04/04 03:47:59;;;;;;;;;;;23.60;43.40;;;;;;1612269;74;754;-68
2022/04/04 03:50:01;;;;;;;;;;;23.60;43.40;;;;;;1612232;72;757;-69
2022/04/04 03:52:03;;;;;;;;;;;23.50;43.40;;;;;;1612965;73;715;-66
2022/04/04 03:54:07;;;;;;;;;;;23.60;43.40;;;;;;1613046;73;672;-66
2022/04/04 03:56:09;;;;;;;;;;;23.50;43.30;;;;;;1611355;73;1709;-65
2022/04/04 03:58:12;;;;;;;;;;;23.60;43.20;;;;;;1612028;74;1902;-65
2022/04/04 04:00:14;;;;;;;;;;;23.50;43.40;;;;;;1612107;74;712;-65
2022/04/04 04:02:16;;;;;;;;;;;23.50;43.40;;;;;;1609485;74;736;-66
2022/04/04 04:04:18;;;;;;;;;;;23.50;43.40;;;;;;1607482;74;1076;-67
2022/04/04 04:06:20;;;;;;;;;;;23.50;43.40;;;;;;1612182;74;768;-64
2022/04/04 04:08:22;;;;;;;;;;;23.50;43.40;;;;;;1612299;74;787;-68
2022/04/04 04:10:24;;;;;;;;;;;23.50;43.40;;;;;;1612047;74;801;-65
2022/04/04 04:12:26;;;;;;;;;;;23.50;43.50;;;;;;1612303;74;809;-67
2022/04/04 04:14:27;;;;;;;;;;;23.50;43.50;;;;;;1602206;74;1152;-67
2022/04/04 04:16:30;;;;;;;;;;;23.50;43.60;;;;;;1584139;75;730;-65
2022/04/04 04:18:33;;;;;;;;;;;23.50;43.60;;;;;;1584061;75;1941;-66
2022/04/04 04:20:35;;;;;;;;;;;23.50;43.60;;;;;;1584142;75;716;-67
2022/04/04 04:22:37;;;;;;;;;;;23.50;43.60;;;;;;1597349;74;772;-66
2022/04/04 04:24:39;;;;;;;;;;;23.50;43.60;;;;;;1610826;74;1153;-68
2022/04/04 04:26:41;;;;;;;;;;;23.50;43.60;;;;;;1612185;74;821;-64
2022/04/04 04:28:46;;;;;;;;;;;23.50;43.60;;;;;;1612246;74;796;-65
2022/04/04 04:30:48;;;;;;;;;;;23.50;43.60;;;;;;1610106;73;795;-67
2022/04/04 04:32:50;;;;;;;;;;;23.50;43.60;;;;;;1571154;75;714;-67
2022/04/04 04:34:52;;;;;;;;;;;23.50;43.70;;;;;;1583538;75;1308;-67
2022/04/04 04:36:54;;;;;;;;;;;23.50;43.60;;;;;;1617350;73;716;-67
2022/04/04 04:38:56;;;;;;;;;;;23.50;43.60;;;;;;1620057;73;1925;-69
2022/04/04 04:40:58;;;;;;;;;;;23.50;43.70;;;;;;1617301;73;741;-66
2022/04/04 04:43:00;;;;;;;;;;;23.50;43.60;;;;;;1617928;72;764;-65
2022/04/04 04:45:03;;;;;;;;;;;23.60;43.70;;;;;;1605880;73;1139;-67
2022/04/04 04:47:05;;;;;;;;;;;23.60;43.60;;;;;;1609486;73;721;-68
2022/04/04 04:49:07;;;;;;;;;;;23.60;43.60;;;;;;1612418;73;775;-68
2022/04/04 04:51:09;;;;;;;;;;;23.60;43.60;;;;;;1618881;73;782;-68
2022/04/04 04:53:11;;;;;;;;;;;23.60;43.60;;;;;;1619997;73;805;-61
2022/04/04 04:55:13;;;;;;;;;;;23.60;43.70;;;;;;1619642;73;1149;-61
2022/04/04 04:57:15;;;;;;;;;;;23.70;43.50;;;;;;1620146;73;783;-61
2022/04/04 04:59:17;;;;;;;;;;;23.80;42.80;;;;;;1620114;73;1937;-61
2022/04/04 05:01:20;;;;;;;;;;;24.10;42.60;;;;;;1620126;73;768;-61
2022/04/04 05:03:24;;;;;;;;;;;24.00;42.30;;;;;;1623261;72;849;-63
2022/04/04 05:05:26;;;;;;;;;;;24.00;42.10;;;;;;1601020;73;1145;-62
2022/04/04 05:07:28;;;;;;;;;;;24.00;42.00;;;;;;1608803;73;726;-64
2022/04/04 05:09:30;;;;;;;;;;;24.00;42.00;;;;;;1618552;73;800;-63
2022/04/04 05:11:32;;;;;;;;;;;24.00;42.20;;;;;;1599384;73;696;-63
2022/04/04 05:13:34;;;;;;;;;;;23.90;42.40;;;;;;1598765;73;634;-60
2022/04/04 05:15:36;;;;;;;;;;;24.00;42.30;;;;;;1608680;73;1136;-60
2022/04/04 05:17:38;;;;;;;;;;;24.00;42.10;;;;;;1609986;73;750;-60
2022/04/04 05:19:40;;;;;;;;;;;24.10;42.10;;;;;;1614391;73;1912;-62
2022/04/04 05:21:42;;;;;;;;;;;24.10;41.90;;;;;;1617834;73;753;-64
2022/04/04 05:23:47;;;;;;;;;;;24.10;41.90;;;;;;1614727;73;757;-60
2022/04/04 05:25:48;;;;;;;;;;;24.00;41.80;;;;;;1611749;73;1710;-60
2022/04/04 05:27:55;;;;;;;;;;;23.90;41.90;;;;;;1619314;73;783;-61
2022/04/04 05:29:53;;;;;;;;;;;23.90;42.10;;;;;;1604219;73;1608;-63
2022/04/04 05:31:56;;;;;;;;;;;23.90;42.30;;;;;;1615054;73;739;-69
2022/04/04 05:33:58;;;;;;;;;;;23.80;42.50;;;;;;1611021;73;844;-61
2022/04/04 05:36:00;;;;;;;;;;;23.90;42.30;;;;;;1606068;73;1094;-63
2022/04/04 05:38:03;;;;;;;;;;;24.00;41.90;;;;;;1620212;73;721;-62
2022/04/04 05:40:05;;;;;;;;;;;24.00;41.80;;;;;;1620203;73;1898;-60
2022/04/04 05:42:07;;;;;;;;;;;24.00;41.70;;;;;;1615613;73;767;-59
2022/04/04 05:44:09;;;;;;;;;;;24.00;41.70;;;;;;1570335;75;1092;-59
2022/04/04 05:46:12;;;;;;;;;;;24.00;41.60;;;;;;1590369;75;776;-60
2022/04/04 05:48:14;;;;;;;;;;;24.00;41.60;;;;;;1604937;73;801;-59
2022/04/04 05:50:16;;;;;;;;;;;24.00;41.60;;;;;;1601342;73;720;-68
2022/04/04 05:52:18;;;;;;;;;;;24.00;41.50;;;;;;1606998;73;736;-63
2022/04/04 05:54:20;;;;;;;;;;;24.00;41.30;;;;;;1607689;73;1154;-64
2022/04/04 05:56:22;;;;;;;;;;;24.00;41.30;;;;;;1599537;73;718;-63
2022/04/04 05:58:23;;;;;;;;;;;24.00;41.30;;;;;;1607683;73;665;-63
2022/04/04 06:00:25;;;;;;;;;;;24.00;41.30;;;;;;1608232;73;802;-63
2022/04/04 06:02:27;;;;;;;;;;;24.00;41.20;;;;;;1604307;73;686;-63
2022/04/04 06:04:29;;;;;;;;;;;24.00;41.20;;;;;;1598639;73;1163;-62
2022/04/04 06:06:31;;;;;;;;;;;24.00;41.30;;;;;;1609124;73;745;-62
2022/04/04 06:08:33;;;;;;;;;;;24.00;41.30;;;;;;1601250;73;781;-62
2022/04/04 06:10:35;;;;;;;;;;;23.90;41.20;;;;;;1612128;73;756;-62
2022/04/04 06:12:41;;;;;;;;;;;23.90;41.10;;;;;;1617000;73;727;-62
2022/04/04 06:14:42;;;;;;;;;;;24.00;41.10;;;;;;1613193;73;1163;-62
2022/04/04 06:16:44;;;;;;;;;;;23.90;41.10;;;;;;1612517;73;731;-62
2022/04/04 06:18:46;;;;;;;;;;;23.90;41.00;;;;;;1611761;73;1940;-64
2022/04/04 06:20:48;;;;;;;;;;;23.90;41.00;;;;;;1617438;73;708;-63
2022/04/04 06:22:50;;;;;;;;;;;23.90;41.00;;;;;;1616171;73;746;-63
2022/04/04 06:24:52;;;;;;;;;;;23.90;41.00;;;;;;1618220;73;1147;-62
2022/04/04 06:26:55;;;;;;;;;;;24.00;40.90;;;;;;1617111;73;784;-62
2022/04/04 06:28:57;;;;;;;;;;;24.00;40.70;;;;;;1607811;73;693;-62
2022/04/04 06:30:59;;;;;;;;;;;24.00;40.60;;;;;;1619484;73;719;-60
2022/04/04 06:33:03;;;;;;;;;;;24.00;40.50;;;;;;1617193;73;766;-62
2022/04/04 06:35:06;;;;;;;;;;;24.10;40.60;;;;;;1613066;73;1193;-63
2022/04/04 06:37:10;;;;;;;;;;;24.20;40.40;;;;;;1616007;73;778;-64
2022/04/04 06:39:11;;;;;;;;;;;24.10;40.30;;;;;;1617160;73;1930;-63
2022/04/04 06:41:13;;;;;;;;;;;24.20;40.20;;;;;;1612617;73;786;-66
2022/04/04 06:43:15;;;;;;;;;;;24.30;40.30;;;;;;1614638;72;784;-61
2022/04/04 06:45:21;;;;;;;;;;;24.20;40.10;;;;;;1616677;73;1130;-64
2022/04/04 06:47:21;;;;;;;;;;;24.30;40.10;;;;;;1616348;73;1628;-62
2022/04/04 06:49:23;;;;;;;;;;;24.20;40.00;;;;;;1617229;73;702;-63
2022/04/04 06:51:25;;;;;;;;;;;24.20;40.00;;;;;;1615708;73;709;-63
2022/04/04 06:53:27;;;;;;;;;;;24.30;40.00;;;;;;1615292;72;835;-63
2022/04/04 06:55:28;;;;;;;;;;;24.20;39.90;;;;;;1609190;73;1161;-64
2022/04/04 06:57:30;;;;;;;;;;;24.20;39.90;;;;;;1603952;72;819;-63
2022/04/04 06:59:33;;;;;;;;;;;24.20;39.80;;;;;;1610177;73;1936;-64
2022/04/04 07:01:35;;;;;;;;;;;24.20;39.80;;;;;;1610573;72;721;-61
2022/04/04 07:03:37;;;;;;;;;;;24.20;39.90;;;;;;1607572;73;857;-62
2022/04/04 07:05:40;;;;;;;;;;;24.10;40.00;;;;;;1606337;73;1162;-63
2022/04/04 07:07:42;;;;;;;;;;;24.10;40.10;;;;;;1611736;73;928;-64
2022/04/04 07:09:45;;;;;;;;;;;24.10;40.00;;;;;;1609879;73;746;-64
2022/04/04 07:11:50;;;;;;;;;;;24.10;40.20;;;;;;1611618;73;791;-61
2022/04/04 07:13:52;;;;;;;;;;;24.00;39.90;;;;;;1607559;73;1508;-64
2022/04/04 07:15:54;;;;;;;;;;;24.10;39.90;;;;;;1614229;73;1160;-63
2022/04/04 07:17:55;;;;;;;;;;;24.00;39.80;;;;;;1616041;73;799;-63
2022/04/04 07:19:57;;;;;;;;;;;24.00;39.90;;;;;;1617636;73;1940;-61
2022/04/04 07:22:02;;;;;;;;;;;24.00;40.00;;;;;;1618987;73;710;-63
2022/04/04 07:24:04;;;;;;;;;;;24.00;39.90;;;;;;1617020;73;749;-64
2022/04/04 07:26:06;;;;;;;;;;;24.00;40.00;;;;;;1615604;73;1107;-63
2022/04/04 07:28:08;;;;;;;;;;;24.00;39.90;;;;;;1615768;73;765;-63
2022/04/04 07:30:10;;;;;;;;;;;24.00;39.90;;;;;;1617060;73;768;-63
2022/04/04 07:32:12;;;;;;;;;;;24.00;40.00;;;;;;1613206;73;748;-63
2022/04/04 07:34:14;;;;;;;;;;;24.00;40.00;;;;;;1589252;73;1150;-63
2022/04/04 07:36:17;;;;;;;;;;;23.90;39.90;;;;;;1606358;73;772;-63
2022/04/04 07:38:18;;;;;;;;;;;23.90;39.80;;;;;;1600596;73;825;-63
2022/04/04 07:40:21;;;;;;;;;;;23.90;39.80;;;;;;1610989;73;1937;-63
2022/04/04 07:42:22;;;;;;;;;;;23.80;40.00;;;;;;1600201;73;742;-63
2022/04/04 07:44:24;;;;;;;;;;;23.80;40.00;;;;;;1619888;73;1120;-64
2022/04/04 07:46:26;;;;;;;;;;;23.70;40.10;;;;;;1609660;73;797;-63
2022/04/04 07:48:29;;;;;;;;;;;23.80;40.20;;;;;;1602532;73;814;-64
2022/04/04 07:50:31;;;;;;;;;;;23.60;40.20;;;;;;1614836;73;816;-64
2022/04/04 07:52:32;;;;;;;;;;;23.60;40.30;;;;;;1615780;73;817;-65
2022/04/04 07:54:34;;;;;;;;;;;23.60;40.40;;;;;;1614621;73;1146;-66
2022/04/04 07:56:36;;;;;;;;;;;23.60;40.40;;;;;;1615517;73;809;-64
2022/04/04 07:58:38;;;;;;;;;;;23.50;40.50;;;;;;1615677;73;745;-63
2022/04/04 08:00:40;;;;;;;;;;;23.50;40.50;;;;;;1612417;73;1931;-64
2022/04/04 08:02:42;;;;;;;;;;;23.50;40.50;;;;;;1607125;73;802;-65
2022/04/04 08:04:44;;;;;;;;;;;23.50;40.60;;;;;;1604456;73;1138;-62
2022/04/04 08:06:46;;;;;;;;;;;23.40;40.50;;;;;;1607959;73;725;-61
2022/04/04 08:08:48;;;;;;;;;;;23.50;40.70;;;;;;1609164;73;670;-62
2022/04/04 08:10:50;;;;;;;;;;;23.40;40.60;;;;;;1608999;73;806;-62
2022/04/04 08:12:51;;;;;;;;;;;23.40;40.60;;;;;;1613769;73;702;-61
2022/04/04 08:14:54;;;;;;;;;;;23.50;40.70;;;;;;1615908;73;1167;-62
2022/04/04 08:16:56;;;;;;;;;;;23.50;40.80;;;;;;1606278;73;764;-63
2022/04/04 08:18:58;;;;;;;;;;;23.40;40.70;;;;;;1614112;73;781;-65
2022/04/04 08:21:00;;;;;;;;;;;23.40;40.70;;;;;;1611419;73;1938;-63
2022/04/04 08:23:02;;;;;;;;;;;23.30;40.70;;;;;;1619191;73;791;-62
2022/04/04 08:25:05;;;;;;;;;;;23.30;40.60;;;;;;1611068;73;1167;-62
2022/04/04 08:27:07;;;;;;;;;;;23.40;40.70;;;;;;1618980;73;762;-61
2022/04/04 08:29:09;;;;;;;;;;;23.40;40.70;;;;;;1617278;73;792;-62
2022/04/04 08:31:11;;;;;;;;;;;23.40;40.70;;;;;;1612019;73;752;-63
2022/04/04 08:33:13;;;;;;;;;;;23.40;40.70;;;;;;1612006;73;760;-63
2022/04/04 08:35:15;;;;;;;;;;;23.40;40.70;;;;;;1611175;73;1166;-64
2022/04/04 08:37:17;;;;;;;;;;;23.40;40.70;;;;;;1612584;73;683;-66
2022/04/04 08:39:19;;;;;;;;;;;23.40;40.70;;;;;;1614747;73;732;-62
2022/04/04 08:41:21;;;;;;;;;;;23.40;40.70;;;;;;1618649;73;1961;-65
2022/04/04 08:43:23;;;;;;;;;;;23.40;40.70;;;;;;1614976;72;732;-66
2022/04/04 08:45:25;;;;;;;;;;;23.30;40.80;;;;;;1616048;73;1158;-63
2022/04/04 08:47:29;;;;;;;;;;;23.50;41.00;;;;;;1620038;73;721;-61
2022/04/04 08:49:31;;;;;;;;;;;23.40;40.80;;;;;;1618441;73;1756;-61
2022/04/04 08:51:33;;;;;;;;;;;23.60;40.90;;;;;;1614161;73;766;-62
2022/04/04 08:53:35;;;;;;;;;;;23.60;40.90;;;;;;1616401;73;688;-61
2022/04/04 08:55:37;;;;;;;;;;;23.60;40.80;;;;;;1617838;73;1145;-62
2022/04/04 08:57:39;;;;;;;;;;;23.60;40.70;;;;;;1613714;73;712;-60
2022/04/04 08:59:41;;;;;;;;;;;23.70;40.80;;;;;;1616252;73;1936;-64
2022/04/04 09:01:42;;;;;;;;;;;23.70;40.70;;;;;;1617742;72;815;-61
2022/04/04 09:03:44;;;;;;;;;;;23.70;40.60;;;;;;1612016;73;792;-63
2022/04/04 09:05:51;;;;;;;;;;;23.80;40.50;;;;;;1614562;73;1135;-61
2022/04/04 09:08:00;;;;;;;;;;;23.80;40.50;;;;;;1601667;73;1860;-61
2022/04/04 09:10:02;;;;;;;;;;;23.90;40.50;;;;;;1604451;73;697;-61
2022/04/04 09:12:07;;;;;;;;;;;23.90;40.40;;;;;;1610640;72;723;-63
2022/04/04 09:14:09;;;;;;;;;;;23.90;40.30;;;;;;1613876;73;1165;-61
2022/04/04 09:16:11;;;;;;;;;;;23.90;40.20;;;;;;1618972;73;725;-62
2022/04/04 09:18:13;;;;;;;;;;;24.00;40.20;;;;;;1618563;73;714;-60
2022/04/04 09:20:16;;;;;;;;;;;24.00;40.10;;;;;;1615215;73;1939;-60
2022/04/04 09:22:19;;;;;;;;;;;24.00;40.00;;;;;;1618829;73;743;-61
2022/04/04 09:24:20;;;;;;;;;;;24.00;40.00;;;;;;1616636;73;1186;-62
2022/04/04 09:26:30;;;;;;;;;;;24.10;40.00;;;;;;1614725;73;744;-61
2022/04/04 09:28:32;;;;;;;;;;;24.00;39.80;;;;;;1619098;73;679;-61
2022/04/04 09:30:34;;;;;;;;;;;24.10;39.90;;;;;;1612347;73;723;-62
2022/04/04 09:32:42;;;;;;;;;;;24.10;39.90;;;;;;1607246;73;820;-61
2022/04/04 09:35:08;;;;;;;;;;;24.10;39.80;;;;;;1616971;73;1157;-60
2022/04/04 09:37:08;;;;;;;;;;;24.10;40.00;;;;;;1606149;73;1724;-60
2022/04/04 09:39:10;;;;;;;;;;;24.10;39.80;;;;;;1613612;73;1691;-60
2022/04/04 09:41:21;;;;;;;;;;;24.10;39.80;;;;;;1616370;73;2035;-61
2022/04/04 09:43:21;;;;;;;;;;;24.20;39.80;;;;;;1596920;73;1596;-62
2022/04/04 09:45:24;;;;;;;;;;;24.20;39.50;;;;;;1615643;73;1206;-63
2022/04/04 09:47:44;;;;;;;;;;;24.20;39.60;;;;;;1615085;73;716;-61
2022/04/04 09:49:46;;;;;;;;;;;24.30;39.60;;;;;;1596923;73;778;-62
2022/04/04 09:51:49;;;;;;;;;;;24.30;39.50;;;;;;1608878;73;750;-60
2022/04/04 09:53:52;;;;;;;;;;;24.30;39.40;;;;;;1606328;73;749;-61
2022/04/04 09:56:00;;;;;;;;;;;24.40;39.40;;;;;;1609120;73;1843;-62
2022/04/04 09:58:02;;;;;;;;;;;24.30;39.20;;;;;;1595016;73;750;-62
2022/04/04 10:00:05;;;;;;;;;;;24.40;39.00;;;;;;1592746;73;1939;-63
2022/04/04 10:02:07;;;;;;;;;;;24.40;39.00;;;;;;1611857;73;809;-61
2022/04/04 10:04:09;;;;;;;;;;;24.50;38.90;;;;;;1615502;73;682;-59
2022/04/04 10:06:12;;;;;;;;;;;24.50;39.00;;;;;;1610189;72;782;-61
2022/04/04 10:08:15;;;;;;;;;;;24.60;38.70;;;;;;1600982;73;763;-61
2022/04/04 10:10:16;;;;;;;;;;;24.60;38.60;;;;;;1611467;73;730;-61
2022/04/04 10:12:18;;;;;;;;;;;24.60;38.60;;;;;;1594380;72;772;-61
2022/04/04 10:14:20;;;;;;;;;;;24.70;38.40;;;;;;1615517;72;1147;-60
2022/04/04 10:16:22;;;;;;;;;;;24.70;38.30;;;;;;1613014;73;806;-63
2022/04/04 10:18:24;;;;;;;;;;;24.80;38.20;;;;;;1608710;73;793;-62
2022/04/04 10:20:26;;;;;;;;;;;24.70;38.20;;;;;;1612903;73;1932;-61
2022/04/04 10:22:28;;;;;;;;;;;24.70;38.10;;;;;;1614905;73;677;-61
2022/04/04 10:24:30;;;;;;;;;;;24.80;38.00;;;;;;1616497;73;1198;-61
2022/04/04 10:26:32;;;;;;;;;;;24.80;37.80;;;;;;1608312;73;773;-62
2022/04/04 10:28:35;;;;;;;;;;;24.80;37.90;;;;;;1612244;73;928;-61
2022/04/04 10:30:40;;;;;;;;;;;24.80;37.80;;;;;;1607318;73;720;-61
2022/04/04 10:32:51;;;;;;;;;;;24.80;37.70;;;;;;1602694;73;987;-60
2022/04/04 10:34:53;;;;;;;;;;;24.90;37.70;;;;;;1600393;72;1175;-62
2022/04/04 10:37:03;;;;;;;;;;;24.90;37.60;;;;;;1602346;73;783;-60
2022/04/04 10:39:05;;;;;;;;;;;25.00;37.50;;;;;;1602615;73;902;-61
2022/04/04 10:41:08;;;;;;;;;;;24.90;37.50;;;;;;1606113;72;1924;-62
2022/04/04 10:43:14;;;;;;;;;;;25.00;37.30;;;;;;1594418;72;1314;-62
2022/04/04 10:45:18;;;;;;;;;;;25.00;37.30;;;;;;1607274;73;1146;-63
2022/04/04 10:47:21;;;;;;;;;;;25.00;37.20;;;;;;1608089;73;1760;-62
2022/04/04 10:49:24;;;;;;;;;;;25.00;37.20;;;;;;1615577;73;1097;-62
2022/04/04 10:51:30;;;;;;;;;;;25.00;37.10;;;;;;1604536;72;744;-62
2022/04/04 10:53:39;;;;;;;;;;;25.00;37.20;;;;;;1618293;73;721;-60
2022/04/04 10:55:43;;;;;;;;;;;25.00;37.10;;;;;;1598484;73;1153;-64
2022/04/04 10:57:44;;;;;;;;;;;25.00;37.10;;;;;;1597572;72;754;-63
2022/04/04 10:59:46;;;;;;;;;;;25.00;37.00;;;;;;1597551;72;800;-61
2022/04/04 11:01:52;;;;;;;;;;;25.00;37.00;;;;;;1600630;72;1904;-61
2022/04/04 11:03:58;;;;;;;;;;;25.00;37.10;;;;;;1608903;73;747;-64
2022/04/04 11:08:32;;;;;;;;;;;25.00;36.90;;;;;;1611448;73;1631;-59
2022/04/04 11:10:41;;;;;;;;;;;24.90;37.00;;;;;;1612844;73;1243;-62
2022/04/04 11:12:57;;;;;;;;;;;25.00;37.10;;;;;;1617307;73;1608;-62
2022/04/04 11:15:06;;;;;;;;;;;25.00;37.00;;;;;;1616442;73;1217;-62
2022/04/04 11:17:17;;;;;;;;;;;25.00;37.00;;;;;;1619120;73;711;-69
2022/04/04 11:19:17;;;;;;;;;;;24.90;37.10;;;;;;1618386;73;1553;-67
2022/04/04 11:21:30;;;;;;;;;;;24.80;37.10;;;;;;1573489;73;1916;-68
2022/04/04 11:23:35;;;;;;;;;;;24.80;37.10;;;;;;1560941;75;1156;-67
2022/04/04 11:25:38;;;;;;;;;;;24.90;37.10;;;;;;1618324;73;1183;-65
2022/04/04 11:27:40;;;;;;;;;;;24.90;37.10;;;;;;1613948;73;733;-71
2022/04/04 11:29:42;;;;;;;;;;;24.90;37.10;;;;;;1618870;73;714;-72
2022/04/04 11:31:51;;;;;;;;;;;24.90;37.10;;;;;;1618705;73;848;-70
2022/04/04 11:33:54;;;;;;;;;;;25.00;37.10;;;;;;1614910;73;712;-67
2022/04/04 11:35:56;;;;;;;;;;;24.90;37.10;;;;;;1615756;73;1126;-67
2022/04/04 11:37:58;;;;;;;;;;;25.00;37.10;;;;;;1601236;72;925;-69
2022/04/04 11:40:03;;;;;;;;;;;24.90;37.20;;;;;;1617793;73;636;-67
2022/04/04 11:42:05;;;;;;;;;;;25.00;37.20;;;;;;1614187;73;1929;-67
2022/04/04 11:44:07;;;;;;;;;;;24.90;37.20;;;;;;1568717;75;1354;-68
2022/04/04 11:46:14;;;;;;;;;;;24.90;37.10;;;;;;1610045;73;1233;-68
2022/04/04 11:48:24;;;;;;;;;;;24.90;37.10;;;;;;1607546;73;761;-66
2022/04/04 11:50:23;;;;;;;;;;;24.90;37.10;;;;;;1608340;73;1635;-67
2022/04/04 11:52:25;;;;;;;;;;;24.90;37.20;;;;;;1605838;73;1051;-69
2022/04/04 11:54:29;;;;;;;;;;;24.90;37.10;;;;;;1608132;73;1146;-69
2022/04/04 11:56:31;;;;;;;;;;;25.00;37.10;;;;;;1600448;73;811;-66
2022/04/04 11:58:38;;;;;;;;;;;24.90;37.20;;;;;;1588193;74;749;-66
2022/04/04 12:00:38;;;;;;;;;;;25.00;37.20;;;;;;1599882;73;1901;-69
2022/04/04 12:02:42;;;;;;;;;;;25.00;37.30;;;;;;1610186;72;694;-61
2022/04/04 12:04:47;;;;;;;;;;;24.90;37.30;;;;;;1601453;73;1660;-61
2022/04/04 12:06:48;;;;;;;;;;;24.90;37.30;;;;;;1603280;73;1158;-60
2022/04/04 12:08:49;;;;;;;;;;;24.80;37.40;;;;;;1603343;72;759;-60
2022/04/04 12:10:51;;;;;;;;;;;24.80;37.50;;;;;;1607226;73;798;-60
2022/04/04 12:12:58;;;;;;;;;;;24.70;37.60;;;;;;1610159;73;882;-61
2022/04/04 12:15:00;;;;;;;;;;;24.70;37.70;;;;;;1597779;74;1193;-60
2022/04/04 12:17:02;;;;;;;;;;;24.50;37.60;;;;;;1568837;75;721;-60